createdAt,value
2016-09-27T00:00:07.709Z,95.96
2016-09-27T00:01:08.190Z,95.24
2016-09-27T00:02:07.733Z,95.53
2016-09-27T00:03:08.231Z,95.23
2016-09-27T00:04:07.738Z,94.75
2016-09-27T00:05:08.305Z,95.22
2016-09-27T00:06:07.811Z,95.30
2016-09-27T00:07:08.518Z,95.56
2016-09-27T00:08:08.031Z,95.54
2016-09-27T00:09:07.603Z,94.93
2016-09-27T00:10:08.190Z,94.97
2016-09-27T00:11:07.840Z,95.12
2016-09-27T00:12:08.206Z,95.02
2016-09-27T00:13:07.740Z,94.99
2016-09-27T00:14:08.161Z,95.45
2016-09-27T00:15:08.143Z,95.40
2016-09-27T00:16:07.610Z,95.67
2016-09-27T00:17:08.323Z,95.87
2016-09-27T00:18:08.001Z,95.63
2016-09-27T00:19:07.545Z,95.55
2016-09-27T00:20:08.044Z,95.39
2016-09-27T00:21:07.625Z,95.18
2016-09-27T00:22:08.147Z,95.28
2016-09-27T00:23:07.724Z,94.81
2016-09-27T00:24:08.259Z,94.78
2016-09-27T00:25:07.942Z,95.01
2016-09-27T00:26:07.974Z,95.15
2016-09-27T00:27:07.529Z,95.42
2016-09-27T00:28:07.995Z,95.82
2016-09-27T00:29:07.566Z,95.39
2016-09-27T00:30:08.093Z,95.06
2016-09-27T00:31:07.557Z,94.44
2016-09-27T00:32:08.134Z,94.51
2016-09-27T00:33:07.693Z,94.38
2016-09-27T00:34:08.221Z,94.18
2016-09-27T00:35:07.783Z,94.31
2016-09-27T00:36:08.386Z,95.06
2016-09-27T00:37:07.926Z,94.91
2016-09-27T00:38:08.441Z,95.34
2016-09-27T00:39:07.911Z,95.39
2016-09-27T00:40:08.480Z,95.30
2016-09-27T00:41:08.053Z,95.02
2016-09-27T00:42:07.593Z,94.92
2016-09-27T00:43:08.201Z,94.85
2016-09-27T00:44:07.713Z,94.69
2016-09-27T00:45:08.258Z,94.41
2016-09-27T00:46:07.800Z,94.02
2016-09-27T00:47:08.417Z,93.65
2016-09-27T00:48:07.854Z,93.64
2016-09-27T00:49:07.853Z,93.74
2016-09-27T00:50:08.443Z,93.60
2016-09-27T00:51:08.013Z,93.48
2016-09-27T00:52:07.493Z,93.73
2016-09-27T00:53:08.023Z,93.65
2016-09-27T00:54:07.612Z,93.25
2016-09-27T00:55:08.115Z,93.70
2016-09-27T00:56:13.286Z,93.64
2016-09-27T00:57:07.965Z,93.67
2016-09-27T00:58:07.463Z,94.24
2016-09-27T00:59:07.990Z,94.04
2016-09-27T01:00:07.479Z,93.70
2016-09-27T01:01:08.318Z,93.53
2016-09-27T01:02:07.944Z,93.46
2016-09-27T01:03:07.519Z,93.33
2016-09-27T01:04:08.143Z,93.19
2016-09-27T01:05:07.700Z,93.37
2016-09-27T01:06:08.292Z,93.46
2016-09-27T01:07:07.822Z,93.86
2016-09-27T01:08:08.381Z,94.10
2016-09-27T01:09:07.882Z,94.17
2016-09-27T01:10:08.408Z,93.63
2016-09-27T01:11:08.102Z,93.97
2016-09-27T01:12:07.718Z,94.47
2016-09-27T01:13:08.222Z,94.49
2016-09-27T01:14:07.704Z,94.36
2016-09-27T01:15:08.284Z,94.43
2016-09-27T01:16:08.471Z,94.69
2016-09-27T01:17:08.102Z,94.67
2016-09-27T01:18:07.636Z,94.63
2016-09-27T01:19:08.225Z,94.49
2016-09-27T01:20:08.213Z,94.16
2016-09-27T01:21:07.710Z,93.95
2016-09-27T01:22:08.222Z,94.01
2016-09-27T01:23:07.718Z,94.43
2016-09-27T01:24:08.311Z,94.78
2016-09-27T01:25:07.791Z,95.32
2016-09-27T01:26:08.736Z,95.69
2016-09-27T01:27:08.305Z,95.65
2016-09-27T01:28:07.910Z,95.60
2016-09-27T01:29:07.560Z,95.49
2016-09-27T01:30:08.154Z,95.35
2016-09-27T01:31:07.625Z,95.11
2016-09-27T01:32:08.182Z,94.72
2016-09-27T01:33:07.711Z,94.39
2016-09-27T01:34:08.269Z,93.92
2016-09-27T01:35:07.787Z,93.51
2016-09-27T01:36:08.309Z,93.52
2016-09-27T01:37:08.430Z,93.71
2016-09-27T01:38:08.061Z,94.59
2016-09-27T01:39:07.512Z,95.10
2016-09-27T01:40:08.101Z,95.31
2016-09-27T01:41:08.071Z,95.24
2016-09-27T01:42:07.670Z,95.05
2016-09-27T01:43:08.258Z,94.38
2016-09-27T01:44:08.069Z,94.25
2016-09-27T01:45:08.531Z,94.36
2016-09-27T01:46:08.144Z,94.34
2016-09-27T01:47:08.500Z,94.30
2016-09-27T01:48:07.819Z,94.08
2016-09-27T01:49:08.263Z,94.37
2016-09-27T01:50:07.833Z,94.05
2016-09-27T01:51:08.537Z,94.38
2016-09-27T01:52:08.087Z,94.02
2016-09-27T01:53:07.634Z,94.23
2016-09-27T01:54:08.428Z,94.36
2016-09-27T01:55:08.030Z,94.51
2016-09-27T01:56:08.235Z,94.25
2016-09-27T01:57:08.321Z,94.33
2016-09-27T01:58:07.887Z,94.36
2016-09-27T01:59:07.518Z,94.14
2016-09-27T02:00:08.125Z,94.34
2016-09-27T02:01:08.207Z,94.55
2016-09-27T02:02:07.949Z,94.56
2016-09-27T02:03:08.349Z,94.45
2016-09-27T02:04:07.880Z,94.55
2016-09-27T02:05:08.452Z,94.41
2016-09-27T02:06:08.012Z,94.42
2016-09-27T02:07:07.522Z,94.72
2016-09-27T02:08:08.035Z,94.86
2016-09-27T02:09:07.792Z,94.61
2016-09-27T02:10:08.649Z,94.74
2016-09-27T02:11:08.669Z,94.40
2016-09-27T02:12:08.302Z,94.41
2016-09-27T02:13:07.851Z,94.87
2016-09-27T02:14:08.392Z,94.95
2016-09-27T02:15:08.473Z,94.78
2016-09-27T02:16:07.959Z,95.02
2016-09-27T02:17:07.711Z,94.73
2016-09-27T02:18:08.237Z,94.83
2016-09-27T02:19:08.056Z,94.68
2016-09-27T02:20:08.061Z,94.56
2016-09-27T02:21:08.113Z,94.41
2016-09-27T02:22:07.665Z,94.64
2016-09-27T02:23:08.351Z,95.15
2016-09-27T02:24:07.508Z,95.31
2016-09-27T02:25:08.089Z,95.15
2016-09-27T02:26:08.219Z,95.13
2016-09-27T02:27:08.055Z,95.14
2016-09-27T02:28:07.700Z,94.69
2016-09-27T02:29:07.647Z,95.15
2016-09-27T02:30:08.187Z,95.01
2016-09-27T02:31:07.738Z,95.07
2016-09-27T02:32:07.520Z,95.14
2016-09-27T02:33:08.346Z,94.93
2016-09-27T02:34:07.854Z,94.73
2016-09-27T02:35:13.973Z,94.74
2016-09-27T02:36:07.412Z,94.84
2016-09-27T02:37:07.685Z,95.02
2016-09-27T02:38:08.305Z,94.78
2016-09-27T02:39:07.810Z,94.81
2016-09-27T02:40:08.359Z,94.73
2016-09-27T02:41:08.064Z,94.68
2016-09-27T02:42:08.261Z,94.63
2016-09-27T02:43:07.840Z,94.75
2016-09-27T02:44:08.265Z,94.54
2016-09-27T02:45:07.744Z,95.08
2016-09-27T02:46:08.315Z,95.39
2016-09-27T02:47:07.869Z,95.09
2016-09-27T02:48:08.508Z,94.96
2016-09-27T02:49:07.931Z,94.77
2016-09-27T02:50:07.486Z,95.23
2016-09-27T02:51:08.095Z,95.49
2016-09-27T02:52:07.590Z,95.12
2016-09-27T02:53:08.170Z,94.52
2016-09-27T02:54:07.686Z,94.03
2016-09-27T02:55:08.244Z,94.38
2016-09-27T02:56:08.327Z,94.67
2016-09-27T02:57:08.066Z,94.16
2016-09-27T02:58:07.719Z,93.70
2016-09-27T02:59:08.338Z,93.79
2016-09-27T03:00:07.877Z,94.30
2016-09-27T03:01:08.381Z,95.02
2016-09-27T03:02:07.826Z,95.08
2016-09-27T03:03:08.601Z,95.21
2016-09-27T03:04:08.139Z,95.31
2016-09-27T03:05:07.791Z,95.51
2016-09-27T03:06:08.269Z,95.40
2016-09-27T03:07:07.909Z,95.19
2016-09-27T03:08:08.739Z,95.16
2016-09-27T03:09:08.285Z,94.76
2016-09-27T03:10:07.818Z,95.05
2016-09-27T03:11:08.484Z,95.31
2016-09-27T03:12:08.143Z,95.43
2016-09-27T03:13:07.619Z,95.45
2016-09-27T03:14:08.160Z,95.47
2016-09-27T03:15:07.717Z,94.90
2016-09-27T03:16:08.297Z,94.78
2016-09-27T03:17:07.901Z,94.97
2016-09-27T03:18:08.403Z,95.01
2016-09-27T03:19:08.277Z,95.15
2016-09-27T03:20:07.760Z,95.01
2016-09-27T03:21:08.331Z,95.19
2016-09-27T03:22:07.858Z,94.80
2016-09-27T03:23:08.455Z,94.73
2016-09-27T03:24:08.067Z,94.78
2016-09-27T03:25:07.572Z,94.96
2016-09-27T03:26:08.396Z,94.71
2016-09-27T03:27:08.028Z,94.56
2016-09-27T03:28:07.586Z,94.56
2016-09-27T03:29:08.533Z,94.84
2016-09-27T03:30:08.248Z,95.00
2016-09-27T03:31:07.797Z,95.56
2016-09-27T03:32:08.356Z,95.19
2016-09-27T03:33:07.825Z,95.01
2016-09-27T03:34:08.452Z,95.27
2016-09-27T03:35:08.023Z,95.35
2016-09-27T03:36:07.482Z,95.05
2016-09-27T03:37:08.056Z,94.82
2016-09-27T03:38:07.578Z,94.92
2016-09-27T03:39:08.147Z,94.44
2016-09-27T03:40:07.649Z,94.81
2016-09-27T03:41:08.235Z,94.95
2016-09-27T03:42:07.884Z,95.30
2016-09-27T03:43:08.483Z,95.16
2016-09-27T03:44:07.967Z,95.26
2016-09-27T03:45:07.479Z,95.20
2016-09-27T03:46:07.993Z,94.69
2016-09-27T03:47:07.494Z,94.85
2016-09-27T03:48:07.965Z,95.66
2016-09-27T03:49:07.469Z,95.79
2016-09-27T03:50:07.954Z,95.83
2016-09-27T03:51:07.505Z,96.09
2016-09-27T03:52:07.969Z,95.93
2016-09-27T03:53:07.806Z,95.90
2016-09-27T03:54:08.339Z,95.96
2016-09-27T03:55:07.890Z,96.29
2016-09-27T03:56:08.739Z,96.54
2016-09-27T03:57:08.294Z,95.96
2016-09-27T03:58:07.764Z,95.90
2016-09-27T03:59:08.316Z,95.61
2016-09-27T04:00:07.932Z,96.02
2016-09-27T04:01:08.457Z,95.84
2016-09-27T04:02:08.034Z,96.07
2016-09-27T04:03:07.579Z,95.81
2016-09-27T04:04:08.110Z,95.48
2016-09-27T04:05:07.735Z,95.08
2016-09-27T04:06:08.230Z,95.32
2016-09-27T04:07:07.755Z,95.26
2016-09-27T04:08:08.350Z,95.05
2016-09-27T04:09:07.835Z,95.81
2016-09-27T04:10:08.408Z,95.55
2016-09-27T04:11:07.982Z,95.39
2016-09-27T04:12:07.525Z,95.47
2016-09-27T04:13:08.143Z,95.96
2016-09-27T04:14:07.625Z,95.94
2016-09-27T04:15:08.205Z,95.70
2016-09-27T04:16:07.756Z,95.71
2016-09-27T04:17:08.457Z,95.39
2016-09-27T04:18:07.891Z,95.42
2016-09-27T04:19:08.427Z,95.49
2016-09-27T04:20:08.026Z,95.55
2016-09-27T04:21:07.518Z,95.21
2016-09-27T04:22:08.022Z,95.18
2016-09-27T04:23:07.660Z,95.26
2016-09-27T04:24:08.136Z,95.21
2016-09-27T04:25:10.655Z,95.31
2016-09-27T04:26:08.695Z,95.03
2016-09-27T04:27:07.985Z,94.73
2016-09-27T04:28:07.664Z,94.99
2016-09-27T04:29:08.202Z,94.26
2016-09-27T04:30:07.766Z,94.20
2016-09-27T04:31:08.301Z,94.43
2016-09-27T04:32:07.842Z,94.41
2016-09-27T04:33:08.497Z,94.70
2016-09-27T04:34:08.273Z,95.61
2016-09-27T04:35:07.748Z,95.67
2016-09-27T04:36:08.335Z,95.39
2016-09-27T04:37:07.867Z,95.13
2016-09-27T04:38:08.435Z,95.57
2016-09-27T04:39:08.062Z,95.12
2016-09-27T04:40:07.677Z,95.58
2016-09-27T04:41:08.316Z,95.17
2016-09-27T04:42:07.958Z,95.02
2016-09-27T04:43:07.565Z,94.94
2016-09-27T04:44:08.100Z,95.34
2016-09-27T04:45:07.584Z,95.76
2016-09-27T04:46:08.072Z,96.27
2016-09-27T04:47:07.565Z,95.79
2016-09-27T04:48:08.194Z,95.87
2016-09-27T04:49:07.971Z,95.99
2016-09-27T04:50:07.492Z,95.73
2016-09-27T04:51:07.971Z,95.88
2016-09-27T04:52:07.531Z,95.60
2016-09-27T04:53:08.046Z,95.58
2016-09-27T04:54:07.619Z,95.55
2016-09-27T04:55:08.127Z,95.10
2016-09-27T04:56:07.781Z,95.25
2016-09-27T04:57:08.416Z,95.11
2016-09-27T04:58:08.006Z,94.69
2016-09-27T04:59:07.547Z,94.51
2016-09-27T05:00:08.095Z,94.16
2016-09-27T05:01:07.726Z,94.13
2016-09-27T05:02:08.283Z,94.18
2016-09-27T05:03:07.787Z,93.86
2016-09-27T05:04:13.906Z,94.10
2016-09-27T05:05:08.456Z,94.34
2016-09-27T05:06:07.944Z,94.74
2016-09-27T05:07:07.432Z,94.88
2016-09-27T05:08:07.934Z,94.80
2016-09-27T05:09:07.461Z,95.11
2016-09-27T05:10:08.015Z,94.73
2016-09-27T05:11:08.477Z,94.49
2016-09-27T05:12:07.967Z,94.25
2016-09-27T05:13:07.466Z,94.11
2016-09-27T05:14:08.061Z,94.37
2016-09-27T05:15:07.661Z,94.36
2016-09-27T05:16:08.383Z,94.42
2016-09-27T05:17:08.090Z,94.07
2016-09-27T05:18:07.540Z,94.07
2016-09-27T05:19:08.095Z,94.13
2016-09-27T05:20:07.656Z,94.23
2016-09-27T05:21:08.296Z,94.23
2016-09-27T05:22:07.843Z,94.54
2016-09-27T05:23:08.358Z,94.51
2016-09-27T05:24:08.019Z,94.52
2016-09-27T05:25:07.519Z,94.72
2016-09-27T05:26:08.868Z,94.86
2016-09-27T05:27:08.500Z,95.20
2016-09-27T05:28:08.054Z,95.33
2016-09-27T05:29:07.644Z,95.15
2016-09-27T05:30:08.233Z,95.04
2016-09-27T05:31:07.812Z,95.16
2016-09-27T05:32:08.418Z,95.14
2016-09-27T05:33:07.883Z,95.17
2016-09-27T05:34:08.432Z,94.75
2016-09-27T05:35:08.008Z,94.72
2016-09-27T05:36:07.498Z,95.46
2016-09-27T05:37:08.072Z,96.04
2016-09-27T05:38:07.747Z,95.91
2016-09-27T05:39:08.300Z,95.79
2016-09-27T05:40:07.900Z,95.92
2016-09-27T05:41:08.526Z,96.13
2016-09-27T05:42:08.174Z,95.56
2016-09-27T05:43:07.769Z,95.51
2016-09-27T05:44:08.287Z,95.97
2016-09-27T05:45:07.762Z,96.40
2016-09-27T05:46:08.292Z,95.99
2016-09-27T05:47:07.804Z,95.74
2016-09-27T05:48:08.369Z,95.91
2016-09-27T05:49:07.959Z,95.78
2016-09-27T05:50:07.507Z,95.87
2016-09-27T05:51:08.027Z,95.56
2016-09-27T05:52:07.588Z,95.35
2016-09-27T05:53:08.136Z,95.47
2016-09-27T05:54:07.646Z,95.19
2016-09-27T05:55:08.133Z,95.23
2016-09-27T05:56:09.024Z,95.47
2016-09-27T05:57:07.563Z,96.00
2016-09-27T05:58:08.089Z,96.47
2016-09-27T05:59:07.613Z,97.02
2016-09-27T06:00:08.167Z,97.37
2016-09-27T06:01:07.663Z,97.96
2016-09-27T06:02:08.212Z,97.77
2016-09-27T06:03:07.783Z,97.70
2016-09-27T06:04:08.298Z,97.87
2016-09-27T06:05:07.795Z,98.91
2016-09-27T06:06:08.365Z,100.00
2016-09-27T06:07:07.962Z,99.69
2016-09-27T06:08:07.526Z,99.27
2016-09-27T06:09:08.118Z,99.13
2016-09-27T06:10:07.613Z,99.71
2016-09-27T06:11:08.986Z,99.91
2016-09-27T06:12:07.456Z,99.59
2016-09-27T06:13:08.023Z,99.91
2016-09-27T06:14:07.546Z,99.93
2016-09-27T06:15:08.057Z,99.64
2016-09-27T06:16:07.527Z,100.00
2016-09-27T06:17:08.191Z,99.90
2016-09-27T06:18:07.719Z,99.84
2016-09-27T06:19:08.243Z,100.00
2016-09-27T06:20:07.714Z,100.00
2016-09-27T06:21:08.303Z,100.00
2016-09-27T06:22:07.799Z,100.00
2016-09-27T06:23:08.321Z,100.00
2016-09-27T06:24:07.889Z,100.00
2016-09-27T06:25:07.633Z,100.00
2016-09-27T06:26:09.062Z,100.00
2016-09-27T06:27:07.545Z,100.00
2016-09-27T06:28:08.103Z,100.00
2016-09-27T06:29:07.665Z,100.00
2016-09-27T06:30:08.216Z,100.00
2016-09-27T06:31:07.666Z,100.00
2016-09-27T06:32:08.213Z,99.98
2016-09-27T06:33:07.749Z,100.00
2016-09-27T06:34:08.325Z,100.00
2016-09-27T06:35:07.852Z,100.00
2016-09-27T06:36:08.456Z,100.00
2016-09-27T06:37:08.100Z,100.00
2016-09-27T06:38:07.658Z,100.00
2016-09-27T06:39:08.156Z,100.00
2016-09-27T06:40:07.699Z,100.00
2016-09-27T06:41:09.157Z,100.00
2016-09-27T06:42:07.661Z,100.00
2016-09-27T06:43:08.155Z,100.00
2016-09-27T06:44:07.619Z,99.98
2016-09-27T06:45:08.192Z,100.00
2016-09-27T06:46:07.772Z,100.00
2016-09-27T06:47:08.358Z,100.00
2016-09-27T06:48:07.883Z,100.00
2016-09-27T06:49:08.466Z,100.00
2016-09-27T06:50:08.030Z,100.00
2016-09-27T06:51:07.666Z,100.00
2016-09-27T06:52:08.257Z,100.00
2016-09-27T06:53:07.820Z,100.00
2016-09-27T06:54:08.408Z,100.00
2016-09-27T06:55:07.984Z,100.00
2016-09-27T06:56:07.973Z,100.00
2016-09-27T06:57:07.573Z,100.00
2016-09-27T06:58:08.170Z,100.00
2016-09-27T06:59:07.677Z,100.00
2016-09-27T07:00:08.348Z,100.00
2016-09-27T07:01:07.829Z,100.00
2016-09-27T07:02:08.394Z,100.00
2016-09-27T07:03:07.896Z,100.00
2016-09-27T07:04:08.445Z,100.00
2016-09-27T07:05:08.022Z,100.00
2016-09-27T07:06:07.585Z,100.00
2016-09-27T07:07:08.180Z,100.00
2016-09-27T07:08:07.614Z,100.00
2016-09-27T07:09:07.736Z,100.00
2016-09-27T07:10:08.316Z,100.00
2016-09-27T07:11:08.721Z,100.00
2016-09-27T07:12:08.323Z,100.00
2016-09-27T07:13:07.973Z,100.00
2016-09-27T07:14:07.438Z,100.00
2016-09-27T07:15:08.023Z,100.00
2016-09-27T07:16:07.610Z,100.00
2016-09-27T07:17:08.409Z,100.00
2016-09-27T07:18:07.961Z,100.00
2016-09-27T07:19:07.423Z,100.00
2016-09-27T07:20:07.934Z,100.00
2016-09-27T07:21:07.508Z,100.00
2016-09-27T07:22:08.145Z,100.00
2016-09-27T07:23:07.757Z,100.00
2016-09-27T07:24:08.303Z,100.00
2016-09-27T07:25:07.825Z,100.00
2016-09-27T07:26:09.302Z,100.00
2016-09-27T07:27:07.863Z,100.00
2016-09-27T07:28:08.495Z,100.00
2016-09-27T07:29:08.064Z,100.00
2016-09-27T07:30:07.580Z,100.00
2016-09-27T07:31:08.134Z,100.00
2016-09-27T07:32:07.724Z,100.00
2016-09-27T07:33:08.353Z,100.00
2016-09-27T07:34:07.880Z,100.00
2016-09-27T07:35:08.434Z,100.00
2016-09-27T07:36:07.905Z,100.00
2016-09-27T07:37:08.626Z,100.00
2016-09-27T07:38:08.198Z,100.00
2016-09-27T07:39:07.726Z,100.00
2016-09-27T07:40:08.259Z,100.00
2016-09-27T07:41:07.865Z,100.00
2016-09-27T07:42:08.464Z,100.00
2016-09-27T07:43:07.977Z,100.00
2016-09-27T07:44:07.545Z,100.00
2016-09-27T07:45:08.032Z,100.00
2016-09-27T07:46:07.673Z,100.00
2016-09-27T07:47:08.235Z,100.00
2016-09-27T07:48:07.752Z,100.00
2016-09-27T07:49:08.319Z,100.00
2016-09-27T07:50:07.778Z,100.00
2016-09-27T07:51:08.323Z,100.00
2016-09-27T07:52:07.847Z,100.00
2016-09-27T07:53:08.457Z,100.00
2016-09-27T07:54:08.106Z,100.00
2016-09-27T07:55:07.601Z,100.00
2016-09-27T07:56:09.037Z,100.00
2016-09-27T07:57:07.502Z,100.00
2016-09-27T07:58:08.075Z,100.00
2016-09-27T07:59:07.572Z,100.00
2016-09-27T08:00:08.107Z,100.00
2016-09-27T08:01:07.609Z,100.00
2016-09-27T08:02:08.192Z,100.00
2016-09-27T08:03:07.806Z,100.00
2016-09-27T08:04:08.456Z,100.00
2016-09-27T08:05:07.987Z,100.00
2016-09-27T08:06:07.511Z,100.00
2016-09-27T08:07:08.095Z,100.00
2016-09-27T08:08:07.666Z,100.00
2016-09-27T08:09:08.247Z,100.00
2016-09-27T08:10:07.798Z,100.00
2016-09-27T08:11:08.876Z,100.00
2016-09-27T08:12:08.499Z,100.00
2016-09-27T08:13:08.123Z,100.00
2016-09-27T08:14:07.685Z,100.00
2016-09-27T08:15:08.238Z,100.00
2016-09-27T08:16:07.779Z,100.00
2016-09-27T08:17:08.501Z,100.00
2016-09-27T08:18:08.038Z,100.00
2016-09-27T08:19:07.600Z,100.00
2016-09-27T08:20:08.105Z,100.00
2016-09-27T08:21:07.607Z,100.00
2016-09-27T08:22:08.095Z,100.00
2016-09-27T08:23:07.619Z,100.00
2016-09-27T08:24:08.168Z,100.00
2016-09-27T08:25:07.728Z,100.00
2016-09-27T08:26:09.163Z,100.00
2016-09-27T08:27:07.816Z,100.00
2016-09-27T08:28:08.414Z,100.00
2016-09-27T08:29:07.969Z,100.00
2016-09-27T08:30:07.448Z,100.00
2016-09-27T08:31:08.017Z,100.00
2016-09-27T08:32:07.571Z,100.00
2016-09-27T08:33:08.187Z,100.00
2016-09-27T08:34:07.747Z,100.00
2016-09-27T08:35:08.356Z,100.00
2016-09-27T08:36:07.919Z,100.00
2016-09-27T08:37:08.420Z,100.00
2016-09-27T08:38:07.942Z,100.00
2016-09-27T08:39:07.395Z,100.00
2016-09-27T08:40:07.991Z,100.00
2016-09-27T08:41:07.538Z,100.00
2016-09-27T08:42:08.065Z,100.00
2016-09-27T08:43:07.595Z,100.00
2016-09-27T08:44:08.261Z,100.00
2016-09-27T08:45:07.849Z,100.00
2016-09-27T08:46:08.419Z,100.00
2016-09-27T08:47:07.980Z,100.00
2016-09-27T08:48:07.520Z,100.00
2016-09-27T08:49:07.997Z,100.00
2016-09-27T08:50:07.472Z,100.00
2016-09-27T08:51:07.975Z,100.00
2016-09-27T08:52:07.486Z,100.00
2016-09-27T08:53:08.109Z,100.00
2016-09-27T08:54:07.568Z,100.00
2016-09-27T08:55:08.162Z,100.00
2016-09-27T08:56:07.851Z,100.00
2016-09-27T08:57:08.459Z,100.00
2016-09-27T08:58:08.042Z,99.59
2016-09-27T08:59:07.678Z,99.37
2016-09-27T09:00:08.282Z,99.97
2016-09-27T09:01:07.879Z,99.39
2016-09-27T09:02:08.343Z,99.31
2016-09-27T09:03:07.923Z,99.04
2016-09-27T09:04:08.481Z,98.75
2016-09-27T09:05:07.993Z,98.14
2016-09-27T09:06:07.461Z,98.29
2016-09-27T09:07:07.939Z,97.83
2016-09-27T09:08:07.547Z,97.61
2016-09-27T09:09:08.113Z,97.37
2016-09-27T09:10:07.630Z,96.78
2016-09-27T09:11:08.221Z,96.79
2016-09-27T09:12:07.797Z,96.61
2016-09-27T09:13:08.377Z,96.22
2016-09-27T09:14:08.014Z,96.48
2016-09-27T09:15:07.570Z,96.71
2016-09-27T09:16:08.079Z,97.18
2016-09-27T09:17:07.755Z,97.55
2016-09-27T09:18:08.357Z,98.29
2016-09-27T09:19:08.202Z,98.36
2016-09-27T09:20:07.734Z,97.86
2016-09-27T09:21:08.262Z,97.33
2016-09-27T09:22:07.895Z,97.52
2016-09-27T09:23:08.502Z,97.49
2016-09-27T09:24:07.968Z,96.96
2016-09-27T09:25:07.528Z,96.99
2016-09-27T09:26:08.540Z,97.92
2016-09-27T09:27:08.066Z,98.47
2016-09-27T09:28:07.602Z,98.30
2016-09-27T09:29:08.213Z,97.16
2016-09-27T09:30:07.912Z,97.15
2016-09-27T09:31:08.557Z,96.63
2016-09-27T09:32:08.082Z,96.42
2016-09-27T09:33:07.678Z,96.59
2016-09-27T09:34:08.279Z,96.89
2016-09-27T09:35:07.719Z,96.49
2016-09-27T09:36:08.292Z,95.53
2016-09-27T09:37:07.834Z,95.57
2016-09-27T09:38:08.409Z,94.80
2016-09-27T09:39:07.939Z,94.53
2016-09-27T09:40:08.469Z,94.73
2016-09-27T09:41:08.531Z,95.10
2016-09-27T09:42:08.102Z,94.63
2016-09-27T09:43:07.669Z,94.63
2016-09-27T09:44:08.338Z,94.47
2016-09-27T09:45:07.816Z,94.32
2016-09-27T09:46:08.411Z,94.13
2016-09-27T09:47:07.970Z,94.04
2016-09-27T09:48:07.457Z,93.78
2016-09-27T09:49:07.978Z,93.79
2016-09-27T09:50:07.499Z,93.37
2016-09-27T09:51:08.038Z,92.98
2016-09-27T09:52:07.664Z,93.18
2016-09-27T09:53:08.238Z,92.61
2016-09-27T09:54:07.748Z,92.43
2016-09-27T09:55:08.280Z,92.18
2016-09-27T09:56:08.215Z,92.01
2016-09-27T09:57:07.709Z,92.14
2016-09-27T09:58:08.277Z,92.53
2016-09-27T09:59:07.788Z,92.38
2016-09-27T10:00:08.320Z,92.03
2016-09-27T10:01:07.860Z,91.85
2016-09-27T10:02:08.399Z,91.06
2016-09-27T10:03:07.866Z,90.45
2016-09-27T10:04:08.445Z,90.12
2016-09-27T10:05:07.965Z,90.20
2016-09-27T10:06:07.404Z,90.27
2016-09-27T10:07:07.878Z,90.46
2016-09-27T10:08:08.527Z,90.07
2016-09-27T10:09:08.086Z,90.50
2016-09-27T10:10:07.583Z,90.90
2016-09-27T10:11:08.151Z,91.00
2016-09-27T10:12:07.655Z,91.00
2016-09-27T10:13:08.263Z,90.87
2016-09-27T10:14:07.843Z,90.71
2016-09-27T10:15:08.346Z,90.35
2016-09-27T10:16:07.843Z,90.46
2016-09-27T10:17:08.504Z,90.93
2016-09-27T10:18:08.021Z,90.83
2016-09-27T10:19:07.489Z,90.90
2016-09-27T10:20:08.054Z,90.96
2016-09-27T10:21:07.614Z,90.87
2016-09-27T10:22:08.201Z,91.11
2016-09-27T10:23:07.686Z,91.64
2016-09-27T10:24:08.301Z,91.64
2016-09-27T10:25:07.884Z,91.60
2016-09-27T10:26:09.327Z,91.34
2016-09-27T10:27:07.884Z,90.78
2016-09-27T10:28:08.451Z,90.54
2016-09-27T10:29:08.080Z,90.73
2016-09-27T10:30:07.884Z,90.11
2016-09-27T10:31:08.353Z,90.64
2016-09-27T10:32:07.886Z,90.83
2016-09-27T10:33:08.435Z,90.32
2016-09-27T10:34:08.049Z,90.06
2016-09-27T10:35:07.612Z,90.10
2016-09-27T10:36:08.081Z,89.76
2016-09-27T10:37:07.599Z,90.26
2016-09-27T10:38:08.080Z,89.79
2016-09-27T10:39:07.622Z,90.10
2016-09-27T10:40:08.153Z,89.90
2016-09-27T10:41:07.653Z,89.75
2016-09-27T10:42:08.225Z,89.67
2016-09-27T10:43:07.770Z,89.88
2016-09-27T10:44:08.450Z,90.25
2016-09-27T10:45:07.995Z,89.79
2016-09-27T10:46:07.450Z,89.71
2016-09-27T10:47:07.916Z,89.27
2016-09-27T10:48:08.565Z,89.67
2016-09-27T10:49:08.165Z,89.50
2016-09-27T10:50:07.686Z,89.12
2016-09-27T10:51:08.119Z,89.30
2016-09-27T10:52:07.681Z,89.46
2016-09-27T10:53:08.177Z,89.61
2016-09-27T10:54:07.796Z,89.97
2016-09-27T10:55:08.373Z,89.94
2016-09-27T10:56:08.236Z,89.23
2016-09-27T10:57:07.803Z,90.38
2016-09-27T10:58:08.357Z,90.18
2016-09-27T10:59:07.925Z,89.88
2016-09-27T11:00:08.506Z,89.44
2016-09-27T11:01:13.632Z,90.50
2016-09-27T11:02:08.217Z,90.34
2016-09-27T11:03:07.797Z,90.27
2016-09-27T11:04:08.315Z,90.07
2016-09-27T11:05:07.850Z,90.12
2016-09-27T11:06:08.328Z,90.51
2016-09-27T11:07:07.794Z,90.31
2016-09-27T11:08:08.337Z,90.06
2016-09-27T11:09:07.986Z,90.15
2016-09-27T11:10:07.504Z,89.79
2016-09-27T11:11:08.244Z,89.32
2016-09-27T11:12:07.754Z,89.32
2016-09-27T11:13:08.317Z,89.35
2016-09-27T11:14:07.895Z,89.23
2016-09-27T11:15:08.465Z,88.61
2016-09-27T11:16:08.023Z,90.04
2016-09-27T11:17:07.646Z,89.38
2016-09-27T11:18:08.197Z,89.41
2016-09-27T11:19:07.659Z,89.06
2016-09-27T11:20:08.249Z,88.20
2016-09-27T11:21:07.834Z,89.03
2016-09-27T11:22:08.442Z,88.91
2016-09-27T11:23:08.045Z,88.72
2016-09-27T11:24:07.608Z,88.95
2016-09-27T11:25:08.232Z,89.38
2016-09-27T11:26:07.739Z,89.77
2016-09-27T11:27:08.245Z,89.21
2016-09-27T11:28:07.764Z,88.26
2016-09-27T11:29:08.323Z,88.40
2016-09-27T11:30:07.797Z,87.81
2016-09-27T11:31:08.361Z,88.57
2016-09-27T11:32:07.885Z,88.16
2016-09-27T11:33:08.509Z,87.51
2016-09-27T11:34:08.175Z,87.57
2016-09-27T11:35:07.711Z,87.55
2016-09-27T11:36:08.261Z,87.43
2016-09-27T11:37:07.740Z,87.45
2016-09-27T11:38:08.362Z,87.52
2016-09-27T11:39:07.971Z,87.38
2016-09-27T11:40:07.582Z,88.46
2016-09-27T11:41:08.061Z,88.67
2016-09-27T11:42:07.566Z,88.02
2016-09-27T11:43:08.129Z,87.48
2016-09-27T11:44:07.709Z,87.19
2016-09-27T11:45:08.255Z,87.24
2016-09-27T11:46:07.823Z,87.78
2016-09-27T11:47:08.269Z,86.35
2016-09-27T11:48:07.693Z,86.04
2016-09-27T11:49:08.350Z,85.82
2016-09-27T11:50:07.823Z,85.21
2016-09-27T11:51:08.354Z,84.52
2016-09-27T11:52:07.901Z,84.77
2016-09-27T11:53:08.505Z,85.13
2016-09-27T11:54:08.081Z,85.69
2016-09-27T11:55:07.595Z,85.23
2016-09-27T11:56:08.106Z,85.69
2016-09-27T11:57:07.654Z,85.58
2016-09-27T11:58:08.213Z,84.84
2016-09-27T11:59:07.777Z,85.62
2016-09-27T12:00:08.340Z,86.05
2016-09-27T12:01:07.810Z,85.78
2016-09-27T12:02:08.388Z,85.51
2016-09-27T12:03:07.867Z,85.28
2016-09-27T12:04:08.430Z,85.13
2016-09-27T12:05:08.003Z,85.04
2016-09-27T12:06:07.464Z,85.39
2016-09-27T12:07:08.025Z,85.20
2016-09-27T12:08:07.520Z,83.31
2016-09-27T12:09:08.032Z,83.60
2016-09-27T12:10:07.511Z,84.41
2016-09-27T12:11:08.088Z,84.04
2016-09-27T12:12:07.615Z,83.84
2016-09-27T12:13:08.147Z,83.18
2016-09-27T12:14:07.550Z,82.97
2016-09-27T12:15:08.123Z,82.84
2016-09-27T12:16:07.816Z,83.03
2016-09-27T12:17:08.519Z,82.83
2016-09-27T12:18:08.082Z,83.06
2016-09-27T12:19:07.681Z,83.40
2016-09-27T12:20:08.263Z,83.16
2016-09-27T12:21:07.862Z,83.30
2016-09-27T12:22:08.484Z,83.48
2016-09-27T12:23:08.007Z,83.91
2016-09-27T12:24:07.526Z,83.66
2016-09-27T12:25:08.056Z,82.40
2016-09-27T12:26:07.690Z,81.89
2016-09-27T12:27:08.222Z,82.23
2016-09-27T12:28:07.786Z,82.02
2016-09-27T12:29:08.281Z,82.22
2016-09-27T12:30:08.016Z,82.23
2016-09-27T12:31:07.490Z,82.03
2016-09-27T12:32:08.055Z,82.52
2016-09-27T12:33:07.656Z,82.58
2016-09-27T12:34:08.171Z,82.92
2016-09-27T12:35:07.743Z,82.61
2016-09-27T12:36:08.417Z,81.99
2016-09-27T12:37:07.952Z,81.27
2016-09-27T12:38:07.525Z,81.35
2016-09-27T12:39:08.086Z,80.50
2016-09-27T12:40:07.645Z,80.18
2016-09-27T12:41:08.297Z,80.13
2016-09-27T12:42:07.849Z,81.04
2016-09-27T12:43:08.316Z,80.70
2016-09-27T12:44:08.028Z,81.06
2016-09-27T12:45:07.619Z,80.38
2016-09-27T12:46:08.258Z,80.30
2016-09-27T12:47:07.824Z,80.24